North Ottawa, Illinois
Current Conditions -  °F | °C
As of 10:55 AM on Thursday 30 Oct 2014 (Local Time) from KVYS Reporting Station
Scattered Clouds Scattered Clouds  
Wind Chill: 44°   Ceiling: Unl
Heat Index: 46°   Visibility: 10mi
Dew Point: 37°   Wind: 5mph
Humidity: 69%   Direction: 220°SW
Pressure: 30.13"   Gusts: NA
Location:  41.4349°N, 88.8687°W
Report Text: KVYS 301555Z AUTO 22004KT 10SM SCT100 08/03 A3013 RMK AO2 T00800027
Loading
Personal Weather Stations






























Interactive Weather Map
Tropical Storm Tracking
New forecast layout! Learn more

10-Day Weather Forecast

Advertisements
Track Severe Weather on mobile